createdAt,value
2019-03-29T00:00:54.951Z,0.00
2019-03-29T00:01:54.918Z,0.00
2019-03-29T00:02:54.936Z,0.00
2019-03-29T00:04:02.512Z,0.00
2019-03-29T00:05:01.914Z,0.00
2019-03-29T00:05:54.895Z,0.00
2019-03-29T00:06:54.870Z,0.00
2019-03-29T00:07:54.821Z,0.00
2019-03-29T00:08:54.885Z,0.00
2019-03-29T00:09:54.830Z,0.00
2019-03-29T00:10:54.776Z,0.00
2019-03-29T00:11:54.836Z,0.00
2019-03-29T00:12:54.758Z,0.00
2019-03-29T00:13:54.853Z,0.00
2019-03-29T00:14:54.726Z,0.00
2019-03-29T00:15:54.711Z,0.00
2019-03-29T00:16:54.717Z,0.00
2019-03-29T00:17:54.710Z,0.00
2019-03-29T00:18:54.740Z,0.00
2019-03-29T00:19:54.720Z,0.00
2019-03-29T00:20:54.652Z,0.00
2019-03-29T00:21:54.650Z,0.00
2019-03-29T00:22:54.654Z,0.00
2019-03-29T00:24:06.165Z,0.00
2019-03-29T00:24:55.689Z,0.00
2019-03-29T00:25:54.598Z,0.00
2019-03-29T00:26:54.600Z,0.00
2019-03-29T00:27:54.590Z,0.00
2019-03-29T00:28:54.585Z,0.00
2019-03-29T00:29:55.276Z,0.00
2019-03-29T00:30:54.589Z,0.00
2019-03-29T00:31:54.530Z,0.00
2019-03-29T00:32:54.546Z,0.00
2019-03-29T00:33:54.534Z,0.00
2019-03-29T00:34:54.599Z,0.00
2019-03-29T00:35:54.533Z,0.00
2019-03-29T00:36:54.479Z,0.00
2019-03-29T00:37:55.767Z,0.00
2019-03-29T00:38:54.477Z,0.00
2019-03-29T00:39:54.474Z,0.00
2019-03-29T00:40:54.460Z,0.00
2019-03-29T00:41:54.459Z,0.00
2019-03-29T00:42:54.408Z,0.00
2019-03-29T00:43:54.401Z,0.00
2019-03-29T00:44:54.526Z,0.00
2019-03-29T00:45:54.401Z,0.00
2019-03-29T00:46:54.508Z,0.00
2019-03-29T00:47:54.378Z,0.00
2019-03-29T00:48:54.363Z,0.00
2019-03-29T00:49:54.327Z,0.00
2019-03-29T00:50:54.326Z,0.00
2019-03-29T00:51:54.337Z,0.00
2019-03-29T00:52:54.335Z,0.00
2019-03-29T00:53:54.295Z,0.00
2019-03-29T00:54:54.831Z,0.00
2019-03-29T00:55:54.302Z,0.00
2019-03-29T00:56:54.258Z,0.00
2019-03-29T00:57:54.305Z,0.00
2019-03-29T00:58:54.269Z,0.00
2019-03-29T00:59:54.224Z,0.00
2019-03-29T01:00:54.231Z,0.00
2019-03-29T01:01:54.199Z,0.00
2019-03-29T01:02:54.216Z,0.00
2019-03-29T01:03:54.213Z,0.00
2019-03-29T01:04:55.231Z,0.00
2019-03-29T01:05:54.151Z,0.00
2019-03-29T01:06:54.175Z,0.00
2019-03-29T01:08:07.091Z,0.00
2019-03-29T01:08:55.213Z,0.00
2019-03-29T01:09:54.139Z,0.00
2019-03-29T01:10:54.150Z,0.00
2019-03-29T01:11:54.157Z,0.00
2019-03-29T01:12:54.111Z,0.00
2019-03-29T01:13:54.144Z,0.00
2019-03-29T01:14:54.075Z,0.00
2019-03-29T01:15:54.074Z,0.00
2019-03-29T01:16:54.156Z,0.00
2019-03-29T01:17:54.025Z,0.00
2019-03-29T01:18:54.044Z,0.00
2019-03-29T01:19:53.999Z,0.00
2019-03-29T01:20:54.043Z,0.00
2019-03-29T01:21:54.016Z,0.00
2019-03-29T01:22:53.960Z,0.00
2019-03-29T01:23:53.967Z,0.00
2019-03-29T01:24:54.021Z,0.00
2019-03-29T01:25:53.947Z,0.00
2019-03-29T01:26:53.999Z,0.00
2019-03-29T01:27:53.942Z,0.00
2019-03-29T01:28:53.902Z,0.00
2019-03-29T01:29:53.916Z,0.00
2019-03-29T01:30:53.853Z,0.00
2019-03-29T01:31:53.941Z,0.00
2019-03-29T01:32:53.825Z,0.00
2019-03-29T01:33:53.829Z,0.00
2019-03-29T01:34:53.814Z,0.00
2019-03-29T01:36:01.289Z,0.00
2019-03-29T01:36:53.903Z,0.00
2019-03-29T01:37:53.779Z,0.00
2019-03-29T01:38:53.762Z,0.00
2019-03-29T01:39:53.750Z,0.00
2019-03-29T01:40:53.753Z,0.00
2019-03-29T01:41:53.732Z,0.00
2019-03-29T01:42:53.729Z,0.00
2019-03-29T01:43:53.700Z,0.00
2019-03-29T01:44:53.885Z,0.00
2019-03-29T01:45:53.698Z,0.00
2019-03-29T01:46:53.691Z,0.00
2019-03-29T01:47:53.667Z,0.00
2019-03-29T01:48:53.652Z,0.00
2019-03-29T01:49:53.636Z,0.00
2019-03-29T01:50:53.628Z,0.00
2019-03-29T01:51:54.055Z,0.00
2019-03-29T01:52:53.618Z,0.00
2019-03-29T01:53:53.614Z,0.00
2019-03-29T01:54:53.590Z,0.00
2019-03-29T01:55:53.580Z,0.00
2019-03-29T01:56:53.561Z,0.00
2019-03-29T01:57:53.567Z,0.00
2019-03-29T01:58:53.556Z,0.00
2019-03-29T01:59:53.531Z,0.00
2019-03-29T02:00:53.525Z,0.00
2019-03-29T02:01:54.361Z,0.00
2019-03-29T02:02:53.515Z,0.00
2019-03-29T02:03:53.492Z,0.00
2019-03-29T02:04:53.514Z,0.00
2019-03-29T02:05:53.903Z,0.00
2019-03-29T02:06:53.448Z,0.00
2019-03-29T02:07:53.445Z,0.00
2019-03-29T02:08:53.449Z,0.00
2019-03-29T02:09:53.415Z,0.00
2019-03-29T02:10:53.407Z,0.00
2019-03-29T02:11:53.401Z,0.00
2019-03-29T02:12:53.394Z,0.00
2019-03-29T02:13:53.388Z,0.00
2019-03-29T02:14:53.476Z,0.00
2019-03-29T02:15:53.353Z,0.00
2019-03-29T02:16:53.354Z,0.00
2019-03-29T02:17:53.338Z,0.00
2019-03-29T02:18:53.316Z,0.00
2019-03-29T02:19:53.326Z,0.00
2019-03-29T02:20:53.320Z,0.00
2019-03-29T02:21:53.295Z,0.00
2019-03-29T02:22:53.300Z,0.00
2019-03-29T02:23:53.268Z,0.00
2019-03-29T02:24:53.289Z,0.00
2019-03-29T02:25:53.241Z,0.00
2019-03-29T02:26:53.239Z,0.00
2019-03-29T02:27:53.274Z,0.00
2019-03-29T02:28:53.210Z,0.00
2019-03-29T02:29:53.208Z,0.00
2019-03-29T02:30:53.200Z,0.00
2019-03-29T02:31:53.203Z,0.00
2019-03-29T02:32:53.195Z,0.00
2019-03-29T02:33:53.170Z,0.00
2019-03-29T02:34:53.145Z,0.00
2019-03-29T02:35:53.141Z,0.00
2019-03-29T02:36:53.127Z,0.00
2019-03-29T02:37:53.175Z,0.00
2019-03-29T02:38:55.465Z,0.00
2019-03-29T02:39:54.679Z,0.00
2019-03-29T02:40:53.105Z,0.00
2019-03-29T02:41:53.063Z,0.00
2019-03-29T02:42:53.056Z,0.00
2019-03-29T02:43:53.061Z,0.00
2019-03-29T02:44:53.048Z,0.00
2019-03-29T02:45:53.048Z,0.00
2019-03-29T02:46:53.774Z,0.00
2019-03-29T02:47:53.025Z,0.00
2019-03-29T02:48:53.001Z,0.00
2019-03-29T02:49:52.976Z,0.00
2019-03-29T02:50:53.013Z,0.00
2019-03-29T02:51:52.999Z,0.00
2019-03-29T02:52:52.944Z,0.00
2019-03-29T02:53:52.941Z,0.00
2019-03-29T02:54:52.923Z,0.00
2019-03-29T02:55:52.911Z,0.00
2019-03-29T02:56:52.913Z,0.00
2019-03-29T02:57:52.911Z,0.00
2019-03-29T02:58:52.902Z,0.00
2019-03-29T02:59:52.866Z,0.00
2019-03-29T03:00:52.860Z,0.00
2019-03-29T03:01:52.855Z,0.00
2019-03-29T03:02:52.894Z,0.00
2019-03-29T03:03:52.818Z,0.00
2019-03-29T03:04:52.815Z,0.00
2019-03-29T03:05:52.800Z,0.00
2019-03-29T03:06:52.785Z,0.00
2019-03-29T03:07:52.789Z,0.00
2019-03-29T03:08:52.773Z,0.00
2019-03-29T03:09:52.769Z,0.00
2019-03-29T03:10:52.770Z,0.00
2019-03-29T03:11:52.759Z,0.00
2019-03-29T03:12:52.718Z,0.00
2019-03-29T03:13:52.749Z,0.00
2019-03-29T03:14:52.706Z,0.00
2019-03-29T03:15:52.690Z,0.00
2019-03-29T03:16:52.678Z,0.00
2019-03-29T03:17:52.672Z,0.00
2019-03-29T03:18:52.658Z,0.00
2019-03-29T03:19:52.662Z,0.00
2019-03-29T03:20:52.662Z,0.00
2019-03-29T03:21:52.647Z,0.00
2019-03-29T03:22:52.608Z,0.00
2019-03-29T03:23:52.631Z,0.00
2019-03-29T03:24:52.625Z,0.00
2019-03-29T03:25:52.583Z,0.00
2019-03-29T03:26:52.564Z,0.00
2019-03-29T03:27:52.563Z,0.00
2019-03-29T03:28:52.571Z,0.00
2019-03-29T03:29:52.535Z,0.00
2019-03-29T03:30:52.550Z,0.00
2019-03-29T03:31:52.541Z,0.00
2019-03-29T03:32:52.532Z,0.00
2019-03-29T03:33:52.501Z,0.00
2019-03-29T03:34:52.478Z,0.00
2019-03-29T03:35:52.558Z,0.00
2019-03-29T03:36:52.451Z,0.00
2019-03-29T03:37:52.584Z,0.00
2019-03-29T03:38:52.441Z,0.00
2019-03-29T03:39:52.425Z,0.00
2019-03-29T03:40:52.449Z,0.00
2019-03-29T03:41:52.421Z,0.00
2019-03-29T03:42:52.385Z,0.00
2019-03-29T03:43:52.489Z,0.00
2019-03-29T03:44:52.379Z,0.00
2019-03-29T03:45:52.361Z,0.00
2019-03-29T03:46:52.383Z,0.00
2019-03-29T03:47:52.335Z,0.00
2019-03-29T03:48:52.353Z,0.00
2019-03-29T03:49:52.310Z,0.00
2019-03-29T03:50:52.311Z,0.00
2019-03-29T03:51:52.295Z,0.00
2019-03-29T03:52:52.284Z,0.00
2019-03-29T03:53:52.271Z,0.00
2019-03-29T03:54:52.269Z,0.00
2019-03-29T03:55:52.261Z,0.00
2019-03-29T03:56:52.238Z,0.00
2019-03-29T03:57:52.255Z,0.00
2019-03-29T03:58:52.233Z,0.00
2019-03-29T03:59:52.215Z,0.00
2019-03-29T04:00:52.212Z,0.00
2019-03-29T04:01:52.175Z,0.00
2019-03-29T04:02:52.177Z,0.00
2019-03-29T04:03:52.183Z,0.00
2019-03-29T04:04:52.166Z,0.00
2019-03-29T04:05:52.139Z,0.00
2019-03-29T04:06:52.135Z,0.00
2019-03-29T04:07:52.113Z,0.00
2019-03-29T04:08:52.137Z,0.00
2019-03-29T04:09:52.116Z,0.00
2019-03-29T04:10:52.094Z,0.00
2019-03-29T04:11:52.077Z,0.00
2019-03-29T04:12:52.059Z,0.00
2019-03-29T04:13:52.048Z,0.00
2019-03-29T04:14:52.047Z,0.00
2019-03-29T04:15:52.056Z,0.00
2019-03-29T04:16:52.034Z,0.00
2019-03-29T04:17:52.001Z,0.00
2019-03-29T04:18:52.010Z,0.00
2019-03-29T04:19:52.005Z,0.00
2019-03-29T04:20:51.980Z,0.00
2019-03-29T04:21:51.972Z,0.00
2019-03-29T04:22:51.961Z,0.00
2019-03-29T04:23:51.943Z,0.00
2019-03-29T04:24:51.939Z,0.00
2019-03-29T04:25:51.918Z,0.00
2019-03-29T04:26:51.914Z,0.00
2019-03-29T04:27:51.899Z,0.00
2019-03-29T04:29:04.249Z,0.00
2019-03-29T04:29:52.872Z,0.00
2019-03-29T04:30:51.924Z,0.00
2019-03-29T04:31:51.847Z,0.00
2019-03-29T04:32:51.850Z,0.00
2019-03-29T04:33:51.828Z,0.00
2019-03-29T04:34:51.864Z,0.00
2019-03-29T04:35:51.818Z,0.00
2019-03-29T04:36:51.818Z,0.00
2019-03-29T04:37:51.780Z,0.00
2019-03-29T04:38:51.779Z,0.00
2019-03-29T04:40:06.397Z,0.00
2019-03-29T04:40:52.761Z,0.00
2019-03-29T04:41:51.748Z,0.00
2019-03-29T04:42:51.740Z,0.00
2019-03-29T04:43:51.719Z,0.00
2019-03-29T04:44:51.714Z,0.00
2019-03-29T04:45:51.699Z,0.00
2019-03-29T04:46:51.679Z,0.00
2019-03-29T04:47:51.670Z,0.00
2019-03-29T04:48:51.666Z,0.00
2019-03-29T04:49:51.657Z,0.00
2019-03-29T04:50:51.654Z,0.00
2019-03-29T04:51:51.653Z,0.00
2019-03-29T04:52:51.648Z,0.00
2019-03-29T04:53:51.616Z,0.00
2019-03-29T04:54:51.619Z,0.00
2019-03-29T04:55:51.659Z,0.00
2019-03-29T04:56:51.582Z,0.00
2019-03-29T04:57:51.567Z,0.00
2019-03-29T04:58:51.570Z,0.00
2019-03-29T04:59:51.544Z,0.00
2019-03-29T05:00:51.534Z,0.00
2019-03-29T05:01:51.621Z,0.00
2019-03-29T05:02:51.511Z,0.00
2019-03-29T05:03:51.530Z,0.00
2019-03-29T05:04:51.487Z,0.00
2019-03-29T05:05:51.485Z,0.00
2019-03-29T05:06:51.490Z,0.00
2019-03-29T05:07:51.451Z,0.00
2019-03-29T05:08:51.438Z,0.00
2019-03-29T05:09:51.439Z,0.00
2019-03-29T05:10:51.415Z,0.00
2019-03-29T05:11:51.398Z,0.00
2019-03-29T05:12:51.411Z,0.00
2019-03-29T05:13:51.381Z,0.00
2019-03-29T05:14:51.402Z,0.00
2019-03-29T05:15:51.366Z,5.62
2019-03-29T05:16:51.350Z,5.62
2019-03-29T05:17:51.333Z,5.62
2019-03-29T05:18:51.347Z,5.62
2019-03-29T05:19:51.318Z,5.62
2019-03-29T05:20:51.307Z,5.62
2019-03-29T05:21:51.298Z,5.62
2019-03-29T05:22:51.284Z,5.62
2019-03-29T05:23:51.291Z,5.62
2019-03-29T05:24:51.255Z,5.62
2019-03-29T05:25:51.267Z,5.62
2019-03-29T05:26:51.259Z,5.62
2019-03-29T05:27:51.226Z,5.62
2019-03-29T05:28:51.231Z,5.62
2019-03-29T05:29:51.210Z,5.62
2019-03-29T05:30:51.192Z,5.62
2019-03-29T05:31:53.560Z,5.62
2019-03-29T05:32:51.178Z,5.62
2019-03-29T05:33:51.157Z,11.25
2019-03-29T05:34:51.146Z,11.25
2019-03-29T05:35:51.131Z,11.25
2019-03-29T05:36:51.123Z,11.25
2019-03-29T05:37:51.142Z,11.25
2019-03-29T05:38:51.101Z,11.25
2019-03-29T05:39:51.092Z,11.25
2019-03-29T05:40:51.085Z,11.25
2019-03-29T05:41:51.095Z,11.25
2019-03-29T05:42:51.059Z,11.25
2019-03-29T05:43:51.049Z,11.25
2019-03-29T05:44:51.046Z,11.25
2019-03-29T05:45:51.020Z,11.25
2019-03-29T05:46:51.030Z,11.25
2019-03-29T05:47:51.027Z,11.25
2019-03-29T05:48:51.010Z,11.25
2019-03-29T05:49:50.979Z,11.25
2019-03-29T05:50:50.985Z,11.25
2019-03-29T05:51:50.957Z,11.25
2019-03-29T05:52:51.011Z,11.25
2019-03-29T05:53:50.941Z,11.25
2019-03-29T05:54:50.930Z,16.88
2019-03-29T05:55:50.916Z,16.88
2019-03-29T05:56:50.907Z,16.88
2019-03-29T05:57:50.918Z,16.88
2019-03-29T05:58:50.946Z,16.88
2019-03-29T05:59:50.874Z,16.88
2019-03-29T06:00:50.929Z,16.88
2019-03-29T06:01:50.862Z,16.88
2019-03-29T06:02:50.838Z,16.88
2019-03-29T06:03:50.854Z,16.88
2019-03-29T06:04:50.811Z,16.88
2019-03-29T06:05:50.809Z,16.88
2019-03-29T06:06:50.787Z,16.88
2019-03-29T06:07:50.795Z,16.88
2019-03-29T06:08:50.812Z,16.88
2019-03-29T06:09:50.771Z,16.88
2019-03-29T06:10:50.749Z,16.88
2019-03-29T06:11:50.745Z,16.88
2019-03-29T06:12:50.722Z,16.88
2019-03-29T06:13:50.720Z,16.88
2019-03-29T06:14:50.742Z,16.88
2019-03-29T06:15:50.698Z,16.88
2019-03-29T06:16:50.700Z,16.88
2019-03-29T06:17:50.679Z,16.88
2019-03-29T06:18:50.664Z,16.88
2019-03-29T06:19:50.646Z,22.50
2019-03-29T06:20:50.644Z,22.50
2019-03-29T06:21:50.646Z,22.50
2019-03-29T06:22:50.615Z,22.50
2019-03-29T06:23:50.635Z,22.50
2019-03-29T06:24:50.601Z,22.50
2019-03-29T06:25:50.620Z,22.50
2019-03-29T06:26:50.588Z,22.50
2019-03-29T06:27:50.558Z,22.50
2019-03-29T06:28:50.568Z,22.50
2019-03-29T06:29:50.586Z,22.50
2019-03-29T06:30:50.548Z,22.50
2019-03-29T06:31:50.524Z,22.50
2019-03-29T06:32:50.500Z,22.50
2019-03-29T06:33:50.500Z,22.50
2019-03-29T06:34:50.481Z,22.50
2019-03-29T06:35:50.482Z,22.50
2019-03-29T06:36:50.477Z,22.50
2019-03-29T06:37:50.464Z,22.50
2019-03-29T06:38:50.441Z,22.50
2019-03-29T06:39:50.433Z,22.50
2019-03-29T06:41:02.272Z,22.50
2019-03-29T06:41:51.413Z,22.50
2019-03-29T06:42:50.394Z,22.50
2019-03-29T06:43:50.397Z,22.50
2019-03-29T06:44:50.368Z,28.12
2019-03-29T06:45:50.366Z,28.12
2019-03-29T06:46:50.379Z,28.12
2019-03-29T06:47:50.734Z,28.12
2019-03-29T06:48:50.338Z,28.12
2019-03-29T06:49:50.314Z,28.12
2019-03-29T06:50:50.449Z,28.12
2019-03-29T06:51:50.319Z,28.12
2019-03-29T06:52:50.307Z,28.12
2019-03-29T06:53:52.585Z,28.12
2019-03-29T06:54:50.261Z,28.12
2019-03-29T06:55:50.266Z,28.12
2019-03-29T06:56:50.268Z,28.12
2019-03-29T06:57:50.225Z,28.12
2019-03-29T06:58:50.221Z,28.12
2019-03-29T06:59:50.198Z,28.12
2019-03-29T07:00:50.203Z,28.12
2019-03-29T07:01:50.207Z,28.12
2019-03-29T07:02:50.164Z,28.12
2019-03-29T07:03:50.309Z,28.12
2019-03-29T07:04:50.180Z,28.12
2019-03-29T07:05:50.141Z,28.12
2019-03-29T07:06:50.141Z,28.12
2019-03-29T07:07:50.134Z,28.12
2019-03-29T07:08:50.119Z,28.12
2019-03-29T07:09:50.193Z,28.12
2019-03-29T07:10:50.115Z,33.75
2019-03-29T07:11:50.108Z,28.12
2019-03-29T07:12:50.063Z,28.12
2019-03-29T07:13:57.186Z,33.75
2019-03-29T07:14:51.031Z,33.75
2019-03-29T07:15:50.039Z,28.12
2019-03-29T07:16:50.038Z,33.75
2019-03-29T07:17:50.004Z,33.75
2019-03-29T07:18:49.991Z,33.75
2019-03-29T07:19:49.974Z,33.75
2019-03-29T07:20:49.984Z,28.12
2019-03-29T07:21:49.998Z,33.75
2019-03-29T07:22:50.057Z,33.75
2019-03-29T07:23:49.945Z,33.75
2019-03-29T07:24:49.928Z,33.75
2019-03-29T07:25:49.918Z,33.75
2019-03-29T07:26:49.971Z,33.75
2019-03-29T07:27:52.366Z,33.75
2019-03-29T07:28:49.959Z,33.75
2019-03-29T07:29:49.934Z,33.75
2019-03-29T07:30:49.852Z,33.75
2019-03-29T07:31:53.085Z,28.12
2019-03-29T07:32:49.950Z,33.75
2019-03-29T07:33:49.821Z,33.75
2019-03-29T07:34:49.831Z,39.38
2019-03-29T07:35:49.798Z,33.75
2019-03-29T07:36:49.793Z,39.38
2019-03-29T07:37:49.885Z,50.62
2019-03-29T07:38:49.773Z,33.75
2019-03-29T07:39:49.759Z,39.38
2019-03-29T07:40:49.745Z,39.38
2019-03-29T07:41:49.744Z,56.25
2019-03-29T07:42:49.758Z,50.62
2019-03-29T07:43:49.756Z,45.00
2019-03-29T07:44:49.724Z,56.25
2019-03-29T07:45:49.723Z,50.62
2019-03-29T07:46:49.683Z,67.50
2019-03-29T07:47:49.665Z,45.00
2019-03-29T07:48:49.679Z,45.00
2019-03-29T07:49:49.677Z,39.38
2019-03-29T07:50:49.707Z,39.38
2019-03-29T07:51:49.623Z,33.75
2019-03-29T07:52:49.611Z,33.75
2019-03-29T07:53:49.600Z,39.38
2019-03-29T07:54:49.623Z,56.25
2019-03-29T07:55:49.580Z,61.88
2019-03-29T07:56:49.566Z,73.12
2019-03-29T07:57:49.586Z,61.88
2019-03-29T07:58:49.544Z,56.25
2019-03-29T07:59:50.497Z,56.25
2019-03-29T08:00:49.553Z,67.50
2019-03-29T08:01:49.510Z,45.00
2019-03-29T08:02:49.543Z,45.00
2019-03-29T08:03:51.332Z,67.50
2019-03-29T08:04:50.440Z,50.62
2019-03-29T08:05:49.521Z,56.25
2019-03-29T08:06:49.475Z,73.12
2019-03-29T08:07:49.441Z,67.50
2019-03-29T08:08:49.432Z,78.75
2019-03-29T08:09:49.457Z,73.12
2019-03-29T08:10:49.422Z,67.50
2019-03-29T08:11:49.431Z,84.38
2019-03-29T08:12:49.812Z,67.50
2019-03-29T08:13:49.378Z,67.50
2019-03-29T08:14:49.365Z,78.75
2019-03-29T08:15:49.400Z,61.88
2019-03-29T08:16:49.422Z,73.12
2019-03-29T08:17:49.346Z,95.62
2019-03-29T08:18:49.322Z,67.50
2019-03-29T08:20:12.851Z,56.25
2019-03-29T08:20:50.303Z,67.50
2019-03-29T08:21:49.291Z,56.25
2019-03-29T08:22:49.365Z,39.38
2019-03-29T08:23:49.268Z,45.00
2019-03-29T08:24:49.290Z,39.38
2019-03-29T08:25:49.253Z,33.75
2019-03-29T08:26:49.249Z,33.75
2019-03-29T08:27:49.267Z,28.12
2019-03-29T08:28:49.209Z,28.12
2019-03-29T08:29:49.210Z,28.12
2019-03-29T08:30:49.199Z,28.12
2019-03-29T08:31:49.207Z,28.12
2019-03-29T08:32:49.174Z,28.12
2019-03-29T08:33:49.181Z,33.75
2019-03-29T08:34:49.159Z,28.12
2019-03-29T08:35:49.142Z,33.75
2019-03-29T08:36:49.134Z,28.12
2019-03-29T08:37:49.119Z,33.75
2019-03-29T08:38:49.158Z,33.75
2019-03-29T08:39:49.094Z,45.00
2019-03-29T08:40:49.097Z,61.88
2019-03-29T08:41:59.453Z,39.38
2019-03-29T08:42:50.058Z,33.75
2019-03-29T08:43:49.057Z,33.75
2019-03-29T08:44:49.051Z,45.00
2019-03-29T08:45:49.043Z,45.00
2019-03-29T08:46:49.025Z,50.62
2019-03-29T08:47:49.008Z,45.00
2019-03-29T08:48:49.001Z,39.38
2019-03-29T08:49:49.020Z,50.62
2019-03-29T08:50:49.012Z,56.25
2019-03-29T08:51:48.959Z,50.62
2019-03-29T08:52:48.950Z,33.75
2019-03-29T08:53:48.942Z,33.75
2019-03-29T08:54:51.223Z,33.75
2019-03-29T08:55:48.930Z,33.75
2019-03-29T08:56:48.910Z,39.38
2019-03-29T08:57:48.900Z,39.38
2019-03-29T08:58:48.887Z,33.75
2019-03-29T08:59:48.893Z,45.00
2019-03-29T09:00:48.947Z,56.25
2019-03-29T09:01:48.893Z,45.00
2019-03-29T09:02:48.854Z,45.00
2019-03-29T09:04:01.460Z,45.00
2019-03-29T09:04:49.834Z,50.62
2019-03-29T09:05:48.808Z,56.25
2019-03-29T09:06:53.712Z,39.38
2019-03-29T09:07:49.783Z,50.62
2019-03-29T09:08:48.786Z,56.25
2019-03-29T09:09:48.764Z,39.38
2019-03-29T09:10:48.764Z,39.38
2019-03-29T09:11:48.782Z,39.38
2019-03-29T09:12:48.734Z,33.75
2019-03-29T09:13:48.740Z,28.12
2019-03-29T09:14:48.704Z,28.12
2019-03-29T09:15:48.688Z,28.12
2019-03-29T09:16:48.697Z,28.12
2019-03-29T09:17:48.677Z,28.12
2019-03-29T09:18:48.673Z,28.12
2019-03-29T09:19:48.651Z,28.12
2019-03-29T09:20:48.654Z,28.12
2019-03-29T09:21:49.211Z,28.12
2019-03-29T09:22:48.632Z,28.12
2019-03-29T09:23:48.616Z,28.12
2019-03-29T09:24:48.608Z,28.12
2019-03-29T09:25:48.642Z,28.12
2019-03-29T09:26:48.590Z,28.12
2019-03-29T09:27:48.604Z,28.12
2019-03-29T09:28:48.647Z,28.12
2019-03-29T09:29:48.574Z,28.12
2019-03-29T09:30:48.552Z,28.12
2019-03-29T09:31:48.513Z,28.12
2019-03-29T09:32:51.262Z,28.12
2019-03-29T09:33:48.536Z,28.12
2019-03-29T09:34:48.477Z,28.12
2019-03-29T09:35:48.495Z,28.12
2019-03-29T09:36:48.474Z,28.12
2019-03-29T09:37:48.443Z,28.12
2019-03-29T09:38:48.436Z,28.12
2019-03-29T09:39:48.512Z,28.12
2019-03-29T09:40:58.396Z,28.12
2019-03-29T09:41:49.415Z,28.12
2019-03-29T09:42:52.211Z,28.12
2019-03-29T09:43:49.377Z,28.12
2019-03-29T09:44:48.367Z,33.75
2019-03-29T09:45:48.356Z,33.75
2019-03-29T09:46:48.345Z,28.12
2019-03-29T09:47:48.352Z,28.12
2019-03-29T09:48:48.321Z,28.12
2019-03-29T09:49:48.316Z,28.12
2019-03-29T09:50:50.777Z,28.12
2019-03-29T09:51:48.299Z,28.12
2019-03-29T09:52:51.247Z,33.75
2019-03-29T09:53:48.290Z,33.75
2019-03-29T09:54:48.267Z,33.75
2019-03-29T09:55:48.252Z,28.12
2019-03-29T09:56:48.579Z,33.75
2019-03-29T09:57:48.223Z,28.12
2019-03-29T09:58:48.208Z,28.12
2019-03-29T09:59:48.256Z,28.12
2019-03-29T10:00:48.264Z,28.12
2019-03-29T10:01:48.228Z,28.12
2019-03-29T10:02:48.187Z,28.12
2019-03-29T10:03:48.155Z,28.12
2019-03-29T10:04:48.175Z,28.12
2019-03-29T10:05:48.130Z,28.12
2019-03-29T10:06:48.147Z,28.12
2019-03-29T10:07:48.127Z,28.12
2019-03-29T10:08:48.097Z,28.12
2019-03-29T10:09:48.090Z,33.75
2019-03-29T10:10:48.084Z,33.75
2019-03-29T10:11:48.074Z,33.75
2019-03-29T10:12:48.069Z,33.75
2019-03-29T10:13:48.043Z,39.38
2019-03-29T10:14:48.139Z,33.75
2019-03-29T10:15:51.135Z,39.38
2019-03-29T10:16:48.013Z,28.12
2019-03-29T10:17:48.010Z,28.12
2019-03-29T10:18:48.010Z,28.12
2019-03-29T10:19:49.926Z,28.12
2019-03-29T10:20:47.974Z,28.12
2019-03-29T10:21:47.976Z,28.12
2019-03-29T10:22:47.967Z,28.12
2019-03-29T10:23:47.943Z,28.12
2019-03-29T10:24:47.922Z,28.12
2019-03-29T10:25:47.943Z,28.12
2019-03-29T10:26:47.898Z,28.12
2019-03-29T10:27:47.893Z,22.50
2019-03-29T10:28:47.872Z,22.50
2019-03-29T10:29:47.877Z,22.50
2019-03-29T10:30:47.890Z,22.50
2019-03-29T10:31:47.844Z,28.12
2019-03-29T10:32:47.841Z,28.12
2019-03-29T10:33:49.245Z,33.75
2019-03-29T10:34:47.831Z,33.75
2019-03-29T10:35:52.685Z,28.12
2019-03-29T10:36:48.777Z,28.12
2019-03-29T10:37:47.778Z,28.12
2019-03-29T10:38:47.783Z,28.12
2019-03-29T10:39:47.754Z,28.12
2019-03-29T10:40:47.739Z,28.12
2019-03-29T10:41:47.748Z,28.12
2019-03-29T10:42:57.582Z,28.12
2019-03-29T10:43:48.739Z,28.12
2019-03-29T10:44:49.417Z,28.12
2019-03-29T10:45:47.681Z,28.12
2019-03-29T10:46:47.681Z,28.12
2019-03-29T10:47:47.670Z,28.12
2019-03-29T10:48:47.675Z,28.12
2019-03-29T10:49:47.666Z,33.75
2019-03-29T10:50:47.663Z,39.38
2019-03-29T10:51:47.630Z,39.38
2019-03-29T10:52:47.608Z,33.75
2019-03-29T10:53:47.598Z,28.12
2019-03-29T10:54:49.898Z,28.12
2019-03-29T10:55:47.568Z,28.12
2019-03-29T10:56:47.572Z,28.12
2019-03-29T10:57:47.575Z,28.12
2019-03-29T10:58:47.553Z,28.12
2019-03-29T10:59:47.535Z,28.12
2019-03-29T11:00:47.514Z,28.12
2019-03-29T11:01:47.502Z,28.12
2019-03-29T11:02:47.515Z,28.12
2019-03-29T11:03:47.482Z,28.12
2019-03-29T11:04:47.469Z,28.12
2019-03-29T11:05:47.497Z,28.12
2019-03-29T11:06:47.465Z,28.12
2019-03-29T11:07:47.432Z,28.12
2019-03-29T11:08:47.789Z,28.12
2019-03-29T11:09:47.434Z,28.12
2019-03-29T11:10:47.409Z,28.12
2019-03-29T11:11:47.396Z,33.75
2019-03-29T11:12:47.378Z,33.75
2019-03-29T11:13:47.405Z,28.12
2019-03-29T11:14:47.395Z,22.50
2019-03-29T11:15:47.370Z,28.12
2019-03-29T11:16:47.369Z,28.12
2019-03-29T11:17:47.394Z,33.75
2019-03-29T11:18:47.321Z,28.12
2019-03-29T11:19:47.302Z,28.12
2019-03-29T11:20:47.348Z,28.12
2019-03-29T11:21:47.373Z,28.12
2019-03-29T11:22:47.269Z,22.50
2019-03-29T11:23:47.288Z,22.50
2019-03-29T11:24:47.293Z,28.12
2019-03-29T11:25:48.766Z,22.50
2019-03-29T11:26:47.239Z,22.50
2019-03-29T11:27:47.233Z,28.12
2019-03-29T11:28:47.195Z,28.12
2019-03-29T11:29:47.198Z,28.12
2019-03-29T11:30:47.175Z,28.12
2019-03-29T11:31:47.211Z,28.12
2019-03-29T11:32:47.155Z,28.12
2019-03-29T11:33:47.186Z,28.12
2019-03-29T11:34:47.193Z,28.12
2019-03-29T11:35:47.134Z,28.12
2019-03-29T11:36:47.101Z,28.12
2019-03-29T11:37:47.102Z,28.12
2019-03-29T11:38:47.086Z,28.12
2019-03-29T11:39:47.088Z,33.75
2019-03-29T11:40:47.058Z,33.75
2019-03-29T11:41:47.136Z,33.75
2019-03-29T11:42:47.046Z,33.75
2019-03-29T11:43:47.077Z,33.75
2019-03-29T11:44:47.034Z,28.12
2019-03-29T11:45:47.010Z,33.75
2019-03-29T11:46:47.006Z,33.75
2019-03-29T11:47:47.004Z,33.75
2019-03-29T11:48:46.965Z,33.75
2019-03-29T11:49:47.057Z,28.12
2019-03-29T11:50:46.953Z,28.12
2019-03-29T11:51:46.991Z,28.12
2019-03-29T11:52:46.967Z,33.75
2019-03-29T11:53:46.945Z,28.12
2019-03-29T11:54:46.922Z,28.12
2019-03-29T11:55:46.915Z,28.12
2019-03-29T11:56:47.794Z,28.12
2019-03-29T11:57:46.870Z,28.12
2019-03-29T11:58:46.936Z,28.12
2019-03-29T11:59:46.901Z,28.12
2019-03-29T12:00:46.864Z,28.12
2019-03-29T12:01:46.868Z,28.12
2019-03-29T12:02:46.833Z,28.12
2019-03-29T12:03:46.803Z,28.12
2019-03-29T12:04:46.803Z,28.12
2019-03-29T12:05:46.786Z,28.12
2019-03-29T12:06:46.840Z,28.12
2019-03-29T12:07:46.769Z,28.12
2019-03-29T12:08:46.808Z,28.12
2019-03-29T12:09:46.732Z,28.12
2019-03-29T12:10:46.721Z,28.12
2019-03-29T12:11:46.740Z,28.12
2019-03-29T12:12:47.382Z,28.12
2019-03-29T12:13:46.727Z,28.12
2019-03-29T12:14:47.374Z,28.12
2019-03-29T12:15:46.699Z,28.12
2019-03-29T12:16:46.652Z,28.12
2019-03-29T12:17:46.686Z,28.12
2019-03-29T12:18:46.691Z,28.12
2019-03-29T12:19:46.619Z,28.12
2019-03-29T12:20:46.639Z,28.12
2019-03-29T12:21:46.604Z,28.12
2019-03-29T12:22:46.679Z,28.12
2019-03-29T12:23:46.583Z,28.12
2019-03-29T12:24:46.683Z,28.12
2019-03-29T12:25:46.574Z,28.12
2019-03-29T12:26:46.561Z,28.12
2019-03-29T12:27:46.541Z,28.12
2019-03-29T12:28:46.535Z,28.12
2019-03-29T12:29:46.518Z,28.12
2019-03-29T12:30:46.508Z,28.12
2019-03-29T12:31:46.513Z,28.12
2019-03-29T12:32:46.522Z,28.12
2019-03-29T12:33:46.495Z,28.12
2019-03-29T12:34:46.488Z,28.12
2019-03-29T12:35:46.502Z,28.12
2019-03-29T12:36:46.455Z,28.12
2019-03-29T12:37:46.482Z,28.12
2019-03-29T12:38:46.427Z,28.12
2019-03-29T12:39:46.406Z,28.12
2019-03-29T12:40:46.398Z,28.12
2019-03-29T12:41:46.437Z,28.12
2019-03-29T12:42:46.405Z,28.12
2019-03-29T12:43:55.340Z,28.12
2019-03-29T12:44:47.344Z,28.12
2019-03-29T12:45:46.392Z,28.12
2019-03-29T12:46:46.370Z,28.12
2019-03-29T12:47:46.361Z,28.12
2019-03-29T12:48:46.315Z,28.12
2019-03-29T12:49:46.292Z,28.12
2019-03-29T12:50:46.272Z,28.12
2019-03-29T12:51:46.794Z,28.12
2019-03-29T12:52:46.270Z,28.12
2019-03-29T12:53:46.259Z,28.12
2019-03-29T12:54:46.328Z,28.12
2019-03-29T12:55:46.245Z,28.12
2019-03-29T12:56:46.297Z,28.12
2019-03-29T12:57:46.222Z,28.12
2019-03-29T12:58:46.181Z,28.12
2019-03-29T12:59:46.194Z,28.12
2019-03-29T13:00:46.205Z,28.12
2019-03-29T13:01:46.179Z,28.12
2019-03-29T13:02:46.179Z,28.12
2019-03-29T13:03:46.176Z,28.12